Time;durP1;ratioP1;P1;durP2;ratioP2;P2;SDS_P1;SDS_P2;PMS_P1;PMS_P2;Temp;Humidity;BMP_temperature;BMP_pressure;BME280_temperature;BME280_humidity;BME280_pressure;Samples;Min_cycle;Max_cycle;Signal;HPM_P1;HPM_P2
2021/09/10 00:00:07;;;;;;;9.02;7.40;;;18.60;70.40;;;;;;4981168;28;20101;-69
2021/09/10 00:02:33;;;;;;;8.95;7.68;;;18.60;70.60;;;;;;4979208;28;20035;-69
2021/09/10 00:04:58;;;;;;;9.48;8.00;;;18.50;70.70;;;;;;4981616;28;20041;-69
2021/09/10 00:07:24;;;;;;;9.93;7.50;;;18.50;70.70;;;;;;4981565;28;20098;-69
2021/09/10 00:09:50;;;;;;;7.97;7.18;;;18.50;70.80;;;;;;4981339;28;20513;-70
2021/09/10 00:12:15;;;;;;;7.93;7.13;;;18.50;70.70;;;;;;4981545;28;20049;-69
2021/09/10 00:14:41;;;;;;;8.45;7.60;;;18.40;70.90;;;;;;4979009;28;20038;-70
2021/09/10 00:17:07;;;;;;;8.93;8.02;;;18.40;71.00;;;;;;4980761;28;20113;-69
2021/09/10 00:19:32;;;;;;;9.02;7.78;;;18.40;71.00;;;;;;4981591;28;20050;-69
2021/09/10 00:21:58;;;;;;;8.48;7.68;;;18.40;71.20;;;;;;4980731;28;20034;-70
2021/09/10 00:24:24;;;;;;;7.85;7.07;;;18.40;71.30;;;;;;4980901;28;20034;-70
2021/09/10 00:26:49;;;;;;;7.88;7.18;;;18.30;71.10;;;;;;4980494;28;20042;-69
2021/09/10 00:29:15;;;;;;;8.95;8.05;;;18.30;71.10;;;;;;4982247;28;20062;-67
2021/09/10 00:31:41;;;;;;;7.78;7.07;;;18.30;71.10;;;;;;4980617;28;20035;-70
2021/09/10 00:34:07;;;;;;;6.63;6.03;;;18.30;71.10;;;;;;4980672;28;20450;-69
2021/09/10 00:36:32;;;;;;;7.18;6.50;;;18.20;71.20;;;;;;4980804;28;20034;-70
2021/09/10 00:38:58;;;;;;;6.55;5.95;;;18.20;71.30;;;;;;4980269;28;20113;-69
2021/09/10 00:41:23;;;;;;;7.00;6.30;;;18.20;71.10;;;;;;4981382;28;20275;-69
2021/09/10 00:43:49;;;;;;;8.57;6.10;;;18.10;71.10;;;;;;4980654;28;20042;-69
2021/09/10 00:46:15;;;;;;;8.80;7.22;;;18.10;71.30;;;;;;4987842;28;20069;-69
2021/09/10 00:48:41;;;;;;;8.35;7.55;;;18.10;71.40;;;;;;4980162;28;20752;-68
2021/09/10 00:51:08;;;;;;;10.57;7.50;;;18.10;71.70;;;;;;4980822;28;20038;-69
2021/09/10 00:53:33;;;;;;;7.40;6.70;;;18.00;71.60;;;;;;4979839;28;20041;-70
2021/09/10 00:55:59;;;;;;;7.45;6.78;;;18.00;71.60;;;;;;4980137;28;20031;-70
2021/09/10 00:58:25;;;;;;;7.35;6.57;;;17.90;71.80;;;;;;4981130;28;20054;-71
2021/09/10 01:00:51;;;;;;;8.45;7.53;;;17.90;71.80;;;;;;4981731;28;20038;-70
2021/09/10 01:03:17;;;;;;;8.55;7.75;;;17.90;71.80;;;;;;4979778;28;20041;-70
2021/09/10 01:05:44;;;;;;;9.50;8.32;;;17.90;71.90;;;;;;4980055;28;20125;-70
2021/09/10 01:08:12;;;;;;;9.88;8.85;;;17.90;72.30;;;;;;4980739;28;20037;-69
2021/09/10 01:10:41;;;;;;;9.57;8.68;;;17.90;72.80;;;;;;4980442;28;20034;-69
2021/09/10 01:13:08;;;;;;;8.95;8.07;;;17.80;72.80;;;;;;4978586;28;20497;-70
2021/09/10 01:15:34;;;;;;;9.02;8.23;;;17.80;73.00;;;;;;4980827;28;20038;-69
2021/09/10 01:18:00;;;;;;;9.30;8.13;;;17.80;73.00;;;;;;4978237;28;20039;-71
2021/09/10 01:20:25;;;;;;;9.40;8.50;;;17.70;73.00;;;;;;4979909;28;20034;-69
2021/09/10 01:22:51;;;;;;;8.02;7.22;;;17.70;73.10;;;;;;4978832;28;20688;-69
2021/09/10 01:25:19;;;;;;;8.00;6.53;;;17.80;73.00;;;;;;4981041;28;20086;-69
2021/09/10 01:27:50;;;;;;;7.85;7.05;;;17.70;72.80;;;;;;4979716;28;20030;-69
2021/09/10 01:30:19;;;;;;;7.57;6.78;;;17.80;73.80;;;;;;4980054;28;20053;-69
2021/09/10 01:32:45;;;;;;;7.95;7.07;;;17.80;72.80;;;;;;4978907;28;20038;-67
2021/09/10 01:35:11;;;;;;;7.57;6.85;;;17.70;72.60;;;;;;4982829;28;20524;-69
2021/09/10 01:37:39;;;;;;;8.30;7.43;;;17.80;72.60;;;;;;4981544;28;20489;-70
2021/09/10 01:40:06;;;;;;;7.95;7.05;;;17.80;72.60;;;;;;4978187;28;20042;-69
2021/09/10 01:42:31;;;;;;;8.02;7.22;;;17.70;72.50;;;;;;4979040;28;20030;-69
2021/09/10 01:44:57;;;;;;;7.53;6.78;;;17.70;72.50;;;;;;4978814;28;20880;-69
2021/09/10 01:47:23;;;;;;;7.28;6.60;;;17.70;73.30;;;;;;4978417;28;20038;-70
2021/09/10 01:49:49;;;;;;;6.53;5.93;;;17.60;72.60;;;;;;4978982;28;20473;-69
2021/09/10 01:52:14;;;;;;;9.30;6.70;;;17.70;72.70;;;;;;4979372;28;20125;-69
2021/09/10 01:54:40;;;;;;;8.20;7.40;;;17.60;73.00;;;;;;4980866;28;20039;-69
2021/09/10 01:57:06;;;;;;;7.30;6.60;;;17.60;73.10;;;;;;4978524;28;20065;-70
2021/09/10 01:59:31;;;;;;;7.47;6.75;;;17.60;73.10;;;;;;4979514;28;20092;-69
2021/09/10 02:01:57;;;;;;;7.57;6.88;;;17.60;73.30;;;;;;4978784;28;20076;-69
2021/09/10 02:04:23;;;;;;;7.38;6.65;;;17.60;73.40;;;;;;4977475;28;20201;-69
2021/09/10 02:06:48;;;;;;;8.10;7.03;;;17.60;73.70;;;;;;4978378;28;20027;-69
2021/09/10 02:09:14;;;;;;;7.47;6.78;;;17.60;73.60;;;;;;4979283;28;20034;-69
2021/09/10 02:11:40;;;;;;;7.30;6.60;;;17.60;73.50;;;;;;4981120;28;20058;-70
2021/09/10 02:14:06;;;;;;;6.78;6.18;;;17.70;73.70;;;;;;4978568;28;20425;-69
2021/09/10 02:16:32;;;;;;;12.55;6.93;;;17.70;73.50;;;;;;4977694;28;20037;-70
2021/09/10 02:18:58;;;;;;;7.65;6.90;;;17.70;73.60;;;;;;4980728;28;20494;-69
2021/09/10 02:21:24;;;;;;;7.97;6.72;;;17.70;73.50;;;;;;4979977;28;20045;-69
2021/09/10 02:23:50;;;;;;;7.93;7.13;;;17.70;73.40;;;;;;4979299;28;20111;-69
2021/09/10 02:26:15;;;;;;;7.68;6.95;;;17.70;73.50;;;;;;4980006;28;20403;-69
2021/09/10 02:28:41;;;;;;;7.45;6.75;;;17.80;73.60;;;;;;4979713;28;20046;-68
2021/09/10 02:31:07;;;;;;;7.22;6.32;;;17.70;73.50;;;;;;4978505;28;20042;-69
2021/09/10 02:33:33;;;;;;;8.82;7.00;;;17.70;73.60;;;;;;4979393;28;20074;-69
2021/09/10 02:35:59;;;;;;;7.00;6.32;;;17.70;73.70;;;;;;4978943;28;20034;-70
2021/09/10 02:38:25;;;;;;;8.05;7.07;;;17.70;73.50;;;;;;4984840;28;20050;-69
2021/09/10 02:40:51;;;;;;;7.28;6.53;;;17.70;73.70;;;;;;4980071;28;20576;-69
2021/09/10 02:43:17;;;;;;;7.65;6.97;;;17.70;73.70;;;;;;4982698;28;20117;-69
2021/09/10 02:45:43;;;;;;;8.65;7.45;;;17.70;73.70;;;;;;4984503;28;20517;-69
2021/09/10 02:48:08;;;;;;;8.52;7.65;;;17.70;73.50;;;;;;4982786;28;20043;-69
2021/09/10 02:50:34;;;;;;;8.80;7.88;;;17.60;73.50;;;;;;4983980;28;20046;-69
2021/09/10 02:53:00;;;;;;;8.95;8.07;;;17.60;73.70;;;;;;4983251;28;20034;-69
2021/09/10 02:55:26;;;;;;;9.63;8.63;;;17.50;73.70;;;;;;4980671;28;20154;-70
2021/09/10 02:57:52;;;;;;;10.43;8.30;;;17.50;74.00;;;;;;4982114;28;20062;-69
2021/09/10 03:00:17;;;;;;;9.25;8.30;;;17.40;74.00;;;;;;4983059;28;20486;-69
2021/09/10 03:02:43;;;;;;;9.52;8.50;;;17.40;74.20;;;;;;4982650;28;20046;-69
2021/09/10 03:05:10;;;;;;;10.00;8.15;;;17.40;74.40;;;;;;4981653;28;20125;-69
2021/09/10 03:07:35;;;;;;;8.95;8.05;;;17.30;74.30;;;;;;4982565;28;20077;-69
2021/09/10 03:10:02;;;;;;;8.27;7.47;;;17.30;74.30;;;;;;4981184;28;20441;-69
2021/09/10 03:12:28;;;;;;;8.25;7.45;;;17.30;74.20;;;;;;4982406;28;20451;-69
2021/09/10 03:14:53;;;;;;;8.25;7.45;;;17.30;74.20;;;;;;4982274;28;20035;-69
2021/09/10 03:17:19;;;;;;;8.63;7.47;;;17.30;74.30;;;;;;4983327;28;20042;-70
2021/09/10 03:19:45;;;;;;;8.32;7.53;;;17.30;74.40;;;;;;4982371;28;20042;-69
2021/09/10 03:22:10;;;;;;;9.38;7.63;;;17.20;74.00;;;;;;4982548;28;20037;-70
2021/09/10 03:24:36;;;;;;;7.97;7.15;;;17.30;74.00;;;;;;4980866;28;20035;-69
2021/09/10 03:27:02;;;;;;;12.30;9.95;;;17.30;73.90;;;;;;4980227;28;20101;-69
2021/09/10 03:29:27;;;;;;;30.00;20.33;;;17.30;73.90;;;;;;4982949;28;20528;-69
2021/09/10 03:31:53;;;;;;;25.83;18.48;;;17.30;74.90;;;;;;4982471;28;20785;-69
2021/09/10 03:34:20;;;;;;;20.60;15.27;;;17.30;74.20;;;;;;4983271;28;20058;-69
2021/09/10 03:36:45;;;;;;;24.23;16.70;;;17.20;74.10;;;;;;4983791;28;20030;-67
2021/09/10 03:39:11;;;;;;;20.75;14.73;;;17.20;74.20;;;;;;4983023;28;20347;-68
2021/09/10 03:41:36;;;;;;;17.80;13.65;;;17.10;74.40;;;;;;4979558;28;20034;-69
2021/09/10 03:44:02;;;;;;;17.80;12.43;;;17.10;74.60;;;;;;4982078;28;20038;-70
2021/09/10 03:46:28;;;;;;;14.60;11.85;;;17.00;74.60;;;;;;4982270;28;20054;-69
2021/09/10 03:48:53;;;;;;;14.95;11.82;;;17.00;74.80;;;;;;4981569;28;20460;-70
2021/09/10 03:51:19;;;;;;;14.35;11.07;;;16.90;74.90;;;;;;4980782;28;20038;-70
2021/09/10 03:53:44;;;;;;;12.45;10.68;;;16.90;75.10;;;;;;4980932;28;20034;-70
2021/09/10 03:56:10;;;;;;;12.80;10.43;;;16.90;75.10;;;;;;4981292;28;20074;-69
2021/09/10 03:58:36;;;;;;;12.63;10.23;;;16.90;75.10;;;;;;4980421;28;20054;-69
2021/09/10 04:01:01;;;;;;;13.48;10.10;;;16.90;75.10;;;;;;4982300;28;20043;-69
2021/09/10 04:03:28;;;;;;;10.32;9.23;;;16.90;75.20;;;;;;4980927;28;20042;-69
2021/09/10 04:05:53;;;;;;;12.23;9.73;;;16.90;75.20;;;;;;4984065;28;20125;-70
2021/09/10 04:08:19;;;;;;;10.98;9.60;;;16.90;75.30;;;;;;4980969;28;20129;-69
2021/09/10 04:10:44;;;;;;;11.80;9.27;;;16.90;75.40;;;;;;4986683;28;20056;-69
2021/09/10 04:13:10;;;;;;;9.50;8.45;;;16.90;75.20;;;;;;4980885;28;20093;-69
2021/09/10 04:15:36;;;;;;;10.93;8.88;;;16.90;75.10;;;;;;4981178;28;20030;-69
2021/09/10 04:18:04;;;;;;;9.77;8.77;;;16.90;75.00;;;;;;4981222;28;20049;-70
2021/09/10 04:20:29;;;;;;;9.82;8.85;;;16.90;74.90;;;;;;4981715;28;20153;-69
2021/09/10 04:22:55;;;;;;;12.88;8.50;;;16.90;74.90;;;;;;4985584;28;20113;-69
2021/09/10 04:25:21;;;;;;;9.73;8.73;;;16.90;74.90;;;;;;4981336;28;20054;-69
2021/09/10 04:27:47;;;;;;;10.13;8.88;;;16.90;74.90;;;;;;4981901;28;20485;-69
2021/09/10 04:30:13;;;;;;;9.70;8.70;;;16.90;74.70;;;;;;4978755;28;20058;-69
2021/09/10 04:32:38;;;;;;;8.93;8.02;;;16.90;74.70;;;;;;4980614;28;20046;-69
2021/09/10 04:35:06;;;;;;;9.68;8.68;;;16.80;74.60;;;;;;4981178;28;20031;-70
2021/09/10 04:37:31;;;;;;;9.82;8.82;;;16.90;74.90;;;;;;4982122;28;20031;-69
2021/09/10 04:39:57;;;;;;;9.77;8.77;;;16.80;74.80;;;;;;4981570;28;20038;-69
2021/09/10 04:42:23;;;;;;;9.88;8.82;;;16.80;74.70;;;;;;4982216;28;20106;-70
2021/09/10 04:44:49;;;;;;;10.02;9.00;;;16.80;75.10;;;;;;4982975;28;20046;-69
2021/09/10 04:47:14;;;;;;;9.27;8.23;;;16.80;74.90;;;;;;4981727;28;20046;-69
2021/09/10 04:49:41;;;;;;;9.15;8.13;;;16.70;74.90;;;;;;4981573;28;20119;-69
2021/09/10 04:52:08;;;;;;;9.77;8.77;;;16.70;74.90;;;;;;4980242;28;20387;-69
2021/09/10 04:54:33;;;;;;;9.27;8.38;;;16.70;74.90;;;;;;4984820;28;20153;-70
2021/09/10 04:56:59;;;;;;;10.98;8.75;;;16.70;75.10;;;;;;4980812;28;20542;-69
2021/09/10 04:59:25;;;;;;;10.57;8.45;;;16.70;75.10;;;;;;4980711;28;20039;-69
2021/09/10 05:01:51;;;;;;;11.02;8.63;;;16.70;75.20;;;;;;4981014;28;20243;-67
2021/09/10 05:04:18;;;;;;;8.95;7.47;;;16.70;75.10;;;;;;4979573;28;20462;-69
2021/09/10 05:06:44;;;;;;;8.90;8.02;;;16.70;74.90;;;;;;4980586;28;20053;-69
2021/09/10 05:09:10;;;;;;;11.57;9.23;;;16.60;74.90;;;;;;4978466;28;20050;-69
2021/09/10 05:11:35;;;;;;;9.85;8.50;;;16.60;75.10;;;;;;4981400;28;20042;-71
2021/09/10 05:14:01;;;;;;;9.80;8.68;;;16.60;75.30;;;;;;4980546;28;20159;-68
2021/09/10 05:16:27;;;;;;;9.85;8.65;;;16.60;75.30;;;;;;4980257;28;20038;-71
2021/09/10 05:18:53;;;;;;;9.68;8.65;;;16.60;75.30;;;;;;4977882;28;20038;-71
2021/09/10 05:21:18;;;;;;;9.82;8.30;;;16.60;75.40;;;;;;4980330;28;20122;-69
2021/09/10 05:23:44;;;;;;;11.70;8.35;;;16.60;75.50;;;;;;4979677;28;20070;-69
2021/09/10 05:26:10;;;;;;;9.70;8.52;;;16.60;75.70;;;;;;4979494;28;20409;-69
2021/09/10 05:28:35;;;;;;;9.65;8.70;;;16.60;75.60;;;;;;4979919;28;20501;-69
2021/09/10 05:31:01;;;;;;;11.02;8.20;;;16.60;75.70;;;;;;4981974;28;20046;-69
2021/09/10 05:33:26;;;;;;;11.63;8.82;;;16.60;75.90;;;;;;4981053;28;20049;-70
2021/09/10 05:35:52;;;;;;;13.95;9.13;;;16.60;76.10;;;;;;4980057;28;20273;-68
2021/09/10 05:38:18;;;;;;;12.88;9.27;;;16.70;76.10;;;;;;4980554;28;20039;-68
2021/09/10 05:40:43;;;;;;;10.68;9.57;;;16.60;76.30;;;;;;4984009;28;20034;-69
2021/09/10 05:43:09;;;;;;;13.57;8.48;;;16.70;76.50;;;;;;4980183;28;20034;-70
2021/09/10 05:45:35;;;;;;;12.50;9.35;;;16.70;76.50;;;;;;4980694;28;20054;-68
2021/09/10 05:48:00;;;;;;;14.00;9.23;;;16.70;76.60;;;;;;4978736;28;20066;-71
2021/09/10 05:50:26;;;;;;;12.73;8.63;;;16.70;76.60;;;;;;4978705;28;20437;-71
2021/09/10 05:52:52;;;;;;;10.40;8.88;;;16.70;76.70;;;;;;4979372;28;20489;-69
2021/09/10 05:55:17;;;;;;;11.18;8.48;;;16.70;76.80;;;;;;4979721;28;20035;-68
2021/09/10 05:57:43;;;;;;;9.18;8.25;;;16.70;76.90;;;;;;4981392;28;20038;-69
2021/09/10 06:00:10;;;;;;;12.88;9.45;;;16.80;77.10;;;;;;4980016;28;20655;-71
2021/09/10 06:02:36;;;;;;;12.80;9.43;;;16.80;77.10;;;;;;4979283;28;20301;-69
2021/09/10 06:05:01;;;;;;;12.23;8.90;;;16.80;77.10;;;;;;4979821;28;20038;-68
2021/09/10 06:07:27;;;;;;;12.40;9.20;;;16.90;77.10;;;;;;4978778;28;20553;-69
2021/09/10 06:09:52;;;;;;;13.70;9.32;;;16.90;77.10;;;;;;4989810;28;20038;-69
2021/09/10 06:12:18;;;;;;;13.50;10.00;;;16.90;77.20;;;;;;4979361;28;20038;-69
2021/09/10 06:14:44;;;;;;;16.25;9.85;;;16.90;77.30;;;;;;4978573;28;20057;-69
2021/09/10 06:17:10;;;;;;;10.88;9.23;;;17.00;77.60;;;;;;4978680;28;20035;-69
2021/09/10 06:19:35;;;;;;;11.15;9.68;;;17.00;77.80;;;;;;4979662;28;20046;-69
2021/09/10 06:22:01;;;;;;;11.13;9.88;;;17.10;77.80;;;;;;4979074;28;20427;-69
2021/09/10 06:24:27;;;;;;;13.38;10.15;;;17.10;77.70;;;;;;4976874;28;20042;-69
2021/09/10 06:26:52;;;;;;;14.50;10.00;;;17.10;78.00;;;;;;4978932;28;20034;-69
2021/09/10 06:29:18;;;;;;;12.40;10.45;;;17.20;78.20;;;;;;4979648;28;20062;-69
2021/09/10 06:31:44;;;;;;;18.58;11.15;;;17.20;78.30;;;;;;4980513;28;20033;-69
2021/09/10 06:34:10;;;;;;;13.65;10.63;;;17.30;78.40;;;;;;4979034;28;20468;-70
2021/09/10 06:36:35;;;;;;;14.23;10.50;;;17.30;78.40;;;;;;4979085;28;20023;-69
2021/09/10 06:39:01;;;;;;;10.40;9.32;;;17.40;78.60;;;;;;4979084;28;20536;-69
2021/09/10 06:41:27;;;;;;;15.70;10.50;;;17.40;78.20;;;;;;4977818;28;20039;-69
2021/09/10 06:43:52;;;;;;;13.13;10.43;;;17.50;78.40;;;;;;4979364;28;20035;-69
2021/09/10 06:46:18;;;;;;;10.60;9.27;;;17.50;78.30;;;;;;4980403;28;20042;-70
2021/09/10 06:48:44;;;;;;;12.43;10.27;;;17.60;78.00;;;;;;4979058;28;20429;-69
2021/09/10 06:51:09;;;;;;;14.93;10.07;;;17.60;78.00;;;;;;4978213;28;20105;-69
2021/09/10 06:53:35;;;;;;;11.57;9.95;;;17.70;78.00;;;;;;4978052;28;20174;-69
2021/09/10 06:56:01;;;;;;;11.93;10.73;;;17.70;77.90;;;;;;4978270;28;20037;-69
2021/09/10 06:58:27;;;;;;;11.18;9.75;;;17.70;77.70;;;;;;4978328;28;20062;-69
2021/09/10 07:00:53;;;;;;;12.57;11.00;;;17.80;77.90;;;;;;4978990;28;20148;-68
2021/09/10 07:03:18;;;;;;;16.23;10.68;;;17.80;77.90;;;;;;4974259;28;20465;-70
2021/09/10 07:05:44;;;;;;;11.82;9.30;;;17.90;77.80;;;;;;4980008;28;20046;-69
2021/09/10 07:08:10;;;;;;;10.60;9.48;;;17.90;77.60;;;;;;4979255;28;20064;-69
2021/09/10 07:10:36;;;;;;;11.20;10.00;;;17.90;77.80;;;;;;4983859;28;20405;-70
2021/09/10 07:13:01;;;;;;;11.73;9.57;;;18.00;77.80;;;;;;4977718;28;20039;-69
2021/09/10 07:15:27;;;;;;;12.05;10.10;;;18.00;77.70;;;;;;4977921;28;20408;-70
2021/09/10 07:17:53;;;;;;;11.13;9.98;;;18.10;77.50;;;;;;4978865;28;20469;-69
2021/09/10 07:20:19;;;;;;;11.88;10.10;;;18.20;77.50;;;;;;4977408;28;20077;-69
2021/09/10 07:22:44;;;;;;;12.07;9.55;;;18.20;77.40;;;;;;4977935;28;20037;-69
2021/09/10 07:25:10;;;;;;;14.77;11.00;;;18.30;77.50;;;;;;4979047;28;20497;-69
2021/09/10 07:27:36;;;;;;;12.40;9.93;;;18.40;77.50;;;;;;4980876;28;20034;-70
2021/09/10 07:30:03;;;;;;;13.10;9.70;;;18.40;77.30;;;;;;4980221;28;20030;-70
2021/09/10 07:32:28;;;;;;;12.43;10.15;;;18.50;77.40;;;;;;4981298;28;20083;-68
2021/09/10 07:34:54;;;;;;;13.43;10.02;;;18.60;77.50;;;;;;4980468;28;20482;-69
2021/09/10 07:37:26;;;;;;;12.35;9.90;;;18.70;77.50;;;;;;4981652;28;20038;-69
2021/09/10 07:39:53;;;;;;;11.13;9.80;;;18.70;77.40;;;;;;4983217;28;20031;-70
2021/09/10 07:42:19;;;;;;;11.52;9.93;;;18.80;77.20;;;;;;4981773;28;20092;-69
2021/09/10 07:44:44;;;;;;;11.18;9.82;;;18.90;77.00;;;;;;5002817;28;20034;-70
2021/09/10 07:47:11;;;;;;;15.15;9.60;;;18.90;77.00;;;;;;5001740;28;20084;-69
2021/09/10 07:49:37;;;;;;;12.02;9.82;;;19.00;77.00;;;;;;5000677;28;20034;-69
2021/09/10 07:52:03;;;;;;;21.48;10.30;;;19.10;76.90;;;;;;4998856;28;20030;-69
2021/09/10 07:54:28;;;;;;;13.63;10.25;;;19.20;76.70;;;;;;5000446;28;20038;-69
2021/09/10 07:56:54;;;;;;;12.68;9.57;;;19.30;76.70;;;;;;5001673;28;20030;-69
2021/09/10 07:59:20;;;;;;;11.05;9.27;;;19.40;76.70;;;;;;5000975;28;20088;-69
2021/09/10 08:01:45;;;;;;;15.20;9.55;;;19.40;76.50;;;;;;4999505;28;20627;-70
2021/09/10 08:04:11;;;;;;;14.48;8.48;;;19.50;76.20;;;;;;5000767;28;20038;-70
2021/09/10 08:06:37;;;;;;;10.63;7.93;;;19.60;76.10;;;;;;5001294;28;20555;-69
2021/09/10 08:09:04;;;;;;;9.80;8.15;;;19.70;76.10;;;;;;5001798;28;20038;-69
2021/09/10 08:11:30;;;;;;;15.50;8.60;;;19.80;75.80;;;;;;4998332;28;20319;-69
2021/09/10 08:13:57;;;;;;;12.02;8.80;;;19.90;75.70;;;;;;5001654;28;20037;-69
2021/09/10 08:16:23;;;;;;;10.85;8.45;;;20.00;75.30;;;;;;5000301;28;20060;-70
2021/09/10 08:18:49;;;;;;;12.05;8.05;;;20.10;75.10;;;;;;4999191;28;20274;-69
2021/09/10 08:21:15;;;;;;;9.38;7.65;;;20.20;75.10;;;;;;4999701;28;20324;-69
2021/09/10 08:23:40;;;;;;;11.90;8.20;;;20.30;74.70;;;;;;5001152;28;20449;-70
2021/09/10 08:26:06;;;;;;;13.48;7.82;;;20.40;74.30;;;;;;5001029;28;20384;-69
2021/09/10 08:28:31;;;;;;;9.82;7.72;;;20.40;73.80;;;;;;4999889;28;20432;-69
2021/09/10 08:30:57;;;;;;;8.65;7.65;;;20.50;73.50;;;;;;5001038;28;20066;-69
2021/09/10 08:33:24;;;;;;;8.32;6.85;;;20.60;73.30;;;;;;5001187;28;20033;-70
2021/09/10 08:35:49;;;;;;;10.13;6.93;;;20.70;73.20;;;;;;5004281;28;20048;-69
2021/09/10 08:38:16;;;;;;;8.98;6.32;;;20.80;72.70;;;;;;5001843;28;20043;-69
2021/09/10 08:40:45;;;;;;;7.63;6.82;;;20.90;72.50;;;;;;4999314;28;20045;-70
2021/09/10 08:43:11;;;;;;;11.90;6.18;;;21.00;72.30;;;;;;5000015;28;20030;-71
2021/09/10 08:45:37;;;;;;;8.13;5.80;;;21.20;72.00;;;;;;5000983;28;20402;-69
2021/09/10 08:48:02;;;;;;;6.50;5.63;;;21.30;71.50;;;;;;5000345;28;20022;-69
2021/09/10 08:50:28;;;;;;;6.85;5.97;;;21.40;70.90;;;;;;4998271;28;20034;-70
2021/09/10 08:52:54;;;;;;;8.20;5.93;;;21.50;70.50;;;;;;4998739;28;20034;-69
2021/09/10 08:55:20;;;;;;;7.15;6.45;;;21.60;69.90;;;;;;4999873;28;20034;-70
2021/09/10 08:57:50;;;;;;;8.98;6.55;;;21.70;69.20;;;;;;5014803;28;20068;-71
2021/09/10 09:00:18;;;;;;;8.88;5.32;;;21.80;68.50;;;;;;5000638;28;20026;-70
2021/09/10 09:02:58;;;;;;;8.73;5.60;;;21.90;68.80;;;;;;5013497;28;20034;-70
2021/09/10 09:05:25;;;;;;;7.30;5.57;;;22.00;68.30;;;;;;5004776;28;20054;-70
2021/09/10 09:08:23;;;;;;;10.05;5.53;;;22.10;68.10;;;;;;4997118;28;20030;-71
2021/09/10 09:10:56;;;;;;;6.13;5.25;;;22.20;66.90;;;;;;4998691;28;20393;-69
2021/09/10 09:13:24;;;;;;;5.80;5.15;;;22.20;67.60;;;;;;4998956;28;20190;-69
2021/09/10 09:16:28;;;;;;;6.47;5.15;;;22.40;67.30;;;;;;5000044;28;20033;-69
2021/09/10 09:19:03;;;;;;;15.65;4.88;;;22.50;66.80;;;;;;4998925;28;20038;-70
2021/09/10 09:21:33;;;;;;;6.10;5.03;;;22.60;66.70;;;;;;4999434;28;20532;-70
2021/09/10 09:24:17;;;;;;;5.25;4.53;;;22.70;66.00;;;;;;4997524;28;20129;-70
2021/09/10 09:26:45;;;;;;;7.13;5.30;;;22.80;66.00;;;;;;4999797;28;20042;-70
2021/09/10 09:29:13;;;;;;;8.23;5.70;;;22.90;66.20;;;;;;4998534;28;20221;-70
2021/09/10 09:31:40;;;;;;;6.28;5.00;;;23.00;64.70;;;;;;5005393;28;20659;-70
2021/09/10 09:34:07;;;;;;;7.47;4.72;;;23.10;64.60;;;;;;5000224;28;20133;-70
2021/09/10 09:36:34;;;;;;;10.20;5.10;;;23.20;64.50;;;;;;4998983;28;20068;-70
2021/09/10 09:39:09;;;;;;;5.45;4.88;;;23.20;63.80;;;;;;4999868;28;20575;-69
2021/09/10 09:41:43;;;;;;;5.95;5.45;;;23.30;63.40;;;;;;4999803;28;20046;-69
2021/09/10 09:44:13;;;;;;;5.18;4.68;;;23.40;63.10;;;;;;4999741;28;20131;-69
2021/09/10 09:46:41;;;;;;;5.00;4.60;;;23.50;64.00;;;;;;4998739;28;20085;-70
2021/09/10 09:49:11;;;;;;;7.07;5.25;;;23.60;63.40;;;;;;4998903;28;20042;-71
2021/09/10 09:51:56;;;;;;;5.18;4.78;;;23.60;62.20;;;;;;4999759;28;20042;-70
2021/09/10 09:54:22;;;;;;;4.75;4.35;;;23.70;61.80;;;;;;4997466;28;20034;-70
2021/09/10 09:56:49;;;;;;;6.78;5.25;;;23.80;60.80;;;;;;4998303;28;20038;-70
2021/09/10 09:59:16;;;;;;;6.25;5.20;;;23.80;59.90;;;;;;4999063;28;20087;-70
2021/09/10 10:01:43;;;;;;;5.63;5.13;;;23.90;59.70;;;;;;4999513;28;20037;-70
2021/09/10 10:04:09;;;;;;;5.80;5.15;;;24.00;59.90;;;;;;4998061;28;20042;-70
2021/09/10 10:06:36;;;;;;;7.82;5.45;;;24.00;59.50;;;;;;4999111;28;20034;-70
2021/09/10 10:09:13;;;;;;;5.80;5.30;;;24.10;59.40;;;;;;5013248;28;20041;-70
2021/09/10 10:11:49;;;;;;;6.85;5.20;;;24.10;58.90;;;;;;4995609;28;20049;-71
2021/09/10 10:14:39;;;;;;;5.55;5.05;;;24.20;59.50;;;;;;4998937;28;20588;-70
2021/09/10 10:17:26;;;;;;;5.55;5.05;;;24.20;59.00;;;;;;5013353;28;20649;-70
2021/09/10 10:19:51;;;;;;;6.13;5.25;;;24.30;59.40;;;;;;4985490;28;20042;-70
2021/09/10 10:22:40;;;;;;;5.05;4.55;;;24.40;59.40;;;;;;4998252;28;20030;-70
2021/09/10 10:25:10;;;;;;;4.90;4.50;;;24.40;58.00;;;;;;4997950;28;20117;-70
2021/09/10 10:27:46;;;;;;;5.93;5.32;;;24.50;59.10;;;;;;5012058;28;20576;-70
2021/09/10 10:30:15;;;;;;;7.72;5.45;;;24.60;58.00;;;;;;4999105;28;20141;-70
2021/09/10 10:32:49;;;;;;;5.20;4.80;;;24.60;57.70;;;;;;4998258;28;20042;-70
2021/09/10 10:35:22;;;;;;;5.97;4.95;;;24.70;57.40;;;;;;4999111;28;20085;-70
2021/09/10 10:38:09;;;;;;;5.07;4.57;;;24.70;57.30;;;;;;4997729;28;20030;-70
2021/09/10 10:40:34;;;;;;;5.28;4.75;;;24.80;57.20;;;;;;4998070;28;20396;-70
2021/09/10 10:43:03;;;;;;;5.13;4.72;;;24.80;56.90;;;;;;5013169;28;21030;-69
2021/09/10 10:45:40;;;;;;;5.00;4.57;;;24.90;56.60;;;;;;4998587;28;20057;-70
2021/09/10 10:48:34;;;;;;;4.93;4.38;;;25.00;55.80;;;;;;4999055;28;20034;-70
2021/09/10 10:51:13;;;;;;;4.18;3.78;;;25.00;56.20;;;;;;4998726;28;20037;-70
2021/09/10 10:53:48;;;;;;;5.00;4.50;;;25.10;56.70;;;;;;4998167;28;20404;-70
2021/09/10 10:56:28;;;;;;;6.18;4.85;;;25.20;56.20;;;;;;4999202;28;20034;-70
2021/09/10 10:59:12;;;;;;;4.82;4.43;;;25.20;55.50;;;;;;4999035;28;20122;-70
2021/09/10 11:05:12;;;;;;;4.53;4.13;;;25.30;55.10;;;;;;5001450;28;20049;-70
2021/09/10 11:07:37;;;;;;;5.45;4.30;;;25.40;56.10;;;;;;5001004;28;20504;-70
2021/09/10 11:10:06;;;;;;;4.75;4.13;;;25.40;55.80;;;;;;5001529;28;20026;-71
2021/09/10 11:12:34;;;;;;;4.82;4.43;;;25.50;55.70;;;;;;4999457;28;20033;-70
2021/09/10 11:15:14;;;;;;;5.07;4.60;;;25.60;55.30;;;;;;5002117;28;20033;-71
2021/09/10 11:17:41;;;;;;;6.93;4.22;;;25.60;54.50;;;;;;5001131;28;20034;-70
2021/09/10 11:20:07;;;;;;;12.30;4.60;;;25.70;54.00;;;;;;5001418;28;20066;-70
2021/09/10 11:22:48;;;;;;;4.97;4.47;;;25.70;53.50;;;;;;4998967;28;20456;-70
2021/09/10 11:25:14;;;;;;;4.28;3.90;;;25.70;53.00;;;;;;5002065;28;20487;-70
2021/09/10 11:27:40;;;;;;;4.70;4.30;;;25.70;53.10;;;;;;5000076;28;20222;-70
2021/09/10 11:30:08;;;;;;;5.10;4.38;;;25.70;53.10;;;;;;5005179;28;20046;-70
2021/09/10 11:32:34;;;;;;;5.85;4.68;;;25.60;52.90;;;;;;4999931;28;20117;-70
2021/09/10 11:35:00;;;;;;;4.57;3.97;;;25.60;52.90;;;;;;5001715;28;20038;-70
2021/09/10 11:37:31;;;;;;;4.65;4.18;;;25.60;52.70;;;;;;5001854;28;20407;-70
2021/09/10 11:39:58;;;;;;;4.32;4.00;;;25.50;52.70;;;;;;5001702;28;20425;-70
2021/09/10 11:42:37;;;;;;;4.88;4.32;;;25.50;52.80;;;;;;5002482;28;20485;-70
2021/09/10 11:45:14;;;;;;;4.00;3.70;;;25.50;52.60;;;;;;5000614;28;20045;-71
2021/09/10 11:47:41;;;;;;;4.15;3.75;;;25.50;53.00;;;;;;5001313;28;20081;-70
2021/09/10 11:50:09;;;;;;;4.50;4.03;;;25.50;53.90;;;;;;5001041;28;20517;-71
2021/09/10 11:52:40;;;;;;;4.25;3.90;;;25.60;54.00;;;;;;5000234;28;20137;-70
2021/09/10 11:55:06;;;;;;;4.32;3.92;;;25.70;53.40;;;;;;5000610;28;20819;-70
2021/09/10 11:57:32;;;;;;;9.57;4.28;;;25.70;53.10;;;;;;5000617;28;20465;-70
2021/09/10 11:59:58;;;;;;;4.80;3.13;;;25.80;52.90;;;;;;5000805;28;20070;-69
2021/09/10 12:02:24;;;;;;;5.30;3.40;;;25.80;52.60;;;;;;5001195;28;20033;-70
2021/09/10 12:04:57;;;;;;;3.80;3.50;;;25.90;52.00;;;;;;5000078;28;20441;-70
2021/09/10 12:07:30;;;;;;;3.58;3.33;;;25.90;51.50;;;;;;5000429;28;20122;-71
2021/09/10 12:09:57;;;;;;;3.92;3.50;;;25.90;51.40;;;;;;5001300;28;20042;-71
2021/09/10 12:12:27;;;;;;;4.28;3.92;;;26.00;52.00;;;;;;4998132;28;20026;-70
2021/09/10 12:14:52;;;;;;;4.10;3.25;;;26.00;51.00;;;;;;5001273;28;20405;-69
2021/09/10 12:17:24;;;;;;;3.53;3.22;;;26.00;50.80;;;;;;5001048;28;20034;-70
2021/09/10 12:20:13;;;;;;;3.45;2.90;;;26.00;50.50;;;;;;5000603;28;20030;-70
2021/09/10 12:22:44;;;;;;;3.92;3.30;;;25.90;50.50;;;;;;5000177;28;20050;-70
2021/09/10 12:25:25;;;;;;;3.13;2.92;;;25.90;50.90;;;;;;5001473;28;20026;-70
2021/09/10 12:28:13;;;;;;;3.30;3.00;;;25.90;50.40;;;;;;4999392;28;20524;-70
2021/09/10 12:30:45;;;;;;;4.85;3.42;;;25.90;50.60;;;;;;4987206;28;20107;-69
2021/09/10 12:33:19;;;;;;;4.25;3.00;;;26.00;49.90;;;;;;5000525;28;20045;-70
2021/09/10 12:35:46;;;;;;;3.30;3.10;;;25.90;49.80;;;;;;5002124;28;20037;-70
2021/09/10 12:38:15;;;;;;;3.15;2.95;;;26.00;49.90;;;;;;4999745;28;20045;-70
2021/09/10 12:40:43;;;;;;;5.40;2.70;;;26.00;49.70;;;;;;4999387;28;20038;-70
2021/09/10 12:43:10;;;;;;;2.67;2.47;;;26.00;50.10;;;;;;5000770;28;20117;-70
2021/09/10 12:45:37;;;;;;;3.25;2.70;;;26.10;49.50;;;;;;5015909;28;20030;-70
2021/09/10 12:48:03;;;;;;;4.35;2.80;;;26.10;49.50;;;;;;5001959;28;20029;-70